createdAt,value
2019-01-20T00:01:17.513Z,15.37
2019-01-20T00:03:47.966Z,13.03
2019-01-20T00:06:19.304Z,10.17
2019-01-20T00:09:23.821Z,10.50
2019-01-20T00:12:11.580Z,12.00
2019-01-20T00:14:59.477Z,10.78
2019-01-20T00:17:47.455Z,9.78
2019-01-20T00:20:34.974Z,13.10
2019-01-20T00:23:25.802Z,14.55
2019-01-20T00:26:13.949Z,11.20
2019-01-20T00:29:01.942Z,11.43
2019-01-20T00:31:50.025Z,11.53
2019-01-20T00:34:19.887Z,14.20
2019-01-20T00:36:52.292Z,11.85
2019-01-20T00:39:23.360Z,10.30
2019-01-20T00:41:52.624Z,11.25
2019-01-20T00:44:22.320Z,10.82
2019-01-20T00:46:52.978Z,10.48
2019-01-20T00:49:22.916Z,11.73
2019-01-20T00:51:52.209Z,12.23
2019-01-20T00:54:24.088Z,14.45
2019-01-20T00:56:56.718Z,12.60
2019-01-20T00:59:29.470Z,11.80
2019-01-20T01:02:02.777Z,10.72
2019-01-20T01:04:32.654Z,12.37
2019-01-20T01:07:02.876Z,14.20
2019-01-20T01:09:32.998Z,12.13
2019-01-20T01:12:07.208Z,8.65
2019-01-20T01:14:36.887Z,11.47
2019-01-20T01:17:06.580Z,14.20
2019-01-20T01:19:36.876Z,11.85
2019-01-20T01:22:06.511Z,14.93
2019-01-20T01:24:36.814Z,13.35
2019-01-20T01:27:06.265Z,13.55
2019-01-20T01:29:36.067Z,12.68
2019-01-20T01:32:05.956Z,12.18
2019-01-20T01:34:36.383Z,9.65
2019-01-20T01:37:06.170Z,11.43
2019-01-20T01:39:36.366Z,13.65
2019-01-20T01:42:10.965Z,10.80
2019-01-20T01:44:40.390Z,10.95
2019-01-20T01:47:09.881Z,15.95
2019-01-20T01:49:39.211Z,12.23
2019-01-20T01:52:09.250Z,12.20
2019-01-20T01:54:39.664Z,13.13
2019-01-20T01:57:09.706Z,15.03
2019-01-20T01:59:39.601Z,13.05
2019-01-20T02:02:09.627Z,14.23
2019-01-20T02:04:39.973Z,26.05
2019-01-20T02:07:09.512Z,18.12
2019-01-20T02:09:38.801Z,15.10
2019-01-20T02:12:11.387Z,14.70
2019-01-20T02:14:41.454Z,11.45
2019-01-20T02:17:11.708Z,13.22
2019-01-20T02:19:42.162Z,17.70
2019-01-20T02:22:11.740Z,11.80
2019-01-20T02:24:41.335Z,13.98
2019-01-20T02:27:11.473Z,14.23
2019-01-20T02:29:40.806Z,19.65
2019-01-20T02:32:11.524Z,14.10
2019-01-20T02:34:41.076Z,11.15
2019-01-20T02:37:10.673Z,12.07
2019-01-20T02:39:40.169Z,12.18
2019-01-20T02:42:09.659Z,11.10
2019-01-20T02:44:38.978Z,15.32
2019-01-20T02:47:09.645Z,13.03
2019-01-20T02:49:39.934Z,14.05
2019-01-20T02:52:09.372Z,14.10
2019-01-20T02:54:39.583Z,10.93
2019-01-20T02:57:09.909Z,11.78
2019-01-20T02:59:39.517Z,10.13
2019-01-20T03:02:09.597Z,10.65
2019-01-20T03:04:39.044Z,14.15
2019-01-20T03:07:08.378Z,12.90
2019-01-20T03:09:39.749Z,11.90
2019-01-20T03:12:09.478Z,11.65
2019-01-20T03:14:38.777Z,10.18
2019-01-20T03:17:07.997Z,15.88
2019-01-20T03:19:39.113Z,11.63
2019-01-20T03:22:08.785Z,10.88
2019-01-20T03:24:41.140Z,11.05
2019-01-20T03:27:11.366Z,10.85
2019-01-20T03:29:40.773Z,11.35
2019-01-20T03:32:10.792Z,12.75
2019-01-20T03:34:40.329Z,13.00
2019-01-20T03:37:09.902Z,12.53
2019-01-20T03:39:39.708Z,14.47
2019-01-20T03:42:12.134Z,15.03
2019-01-20T03:44:42.295Z,15.53
2019-01-20T03:47:11.844Z,12.80
2019-01-20T03:49:41.595Z,12.60
2019-01-20T03:52:10.987Z,11.57
2019-01-20T03:54:41.357Z,13.95
2019-01-20T03:57:11.331Z,10.75
2019-01-20T03:59:41.697Z,11.35
2019-01-20T04:02:11.881Z,12.40
2019-01-20T04:04:41.593Z,11.35
2019-01-20T04:07:11.190Z,15.45
2019-01-20T04:09:40.620Z,13.05
2019-01-20T04:12:09.963Z,14.05
2019-01-20T04:14:39.255Z,14.15
2019-01-20T04:17:08.788Z,12.28
2019-01-20T04:19:39.211Z,13.95
2019-01-20T04:22:08.679Z,11.85
2019-01-20T04:24:38.075Z,13.75
2019-01-20T04:27:09.193Z,14.78
2019-01-20T04:29:39.289Z,10.08
2019-01-20T04:32:09.384Z,13.38
2019-01-20T04:34:40.206Z,11.25
2019-01-20T04:37:09.907Z,10.45
2019-01-20T04:39:39.277Z,14.90
2019-01-20T04:42:10.428Z,14.68
2019-01-20T04:44:40.976Z,15.30
2019-01-20T04:47:10.489Z,17.67
2019-01-20T04:49:40.145Z,13.43
2019-01-20T04:52:11.060Z,15.72
2019-01-20T04:54:40.700Z,10.98
2019-01-20T04:57:10.624Z,13.00
2019-01-20T04:59:40.640Z,12.60
2019-01-20T05:02:10.513Z,17.27
2019-01-20T05:04:39.847Z,13.58
2019-01-20T05:07:10.285Z,12.30
2019-01-20T05:09:40.614Z,10.95
2019-01-20T05:12:09.951Z,9.85
2019-01-20T05:14:39.644Z,10.38
2019-01-20T05:17:09.113Z,11.45
2019-01-20T05:19:39.806Z,9.20
2019-01-20T05:22:09.354Z,9.80
2019-01-20T05:24:39.038Z,11.22
2019-01-20T05:27:08.583Z,9.18
2019-01-20T05:29:38.271Z,16.37
2019-01-20T05:32:07.526Z,8.70
2019-01-20T05:34:36.811Z,11.22
2019-01-20T05:37:06.619Z,10.45
2019-01-20T05:39:36.530Z,10.60
2019-01-20T05:42:06.088Z,11.50
2019-01-20T05:44:35.418Z,15.08
2019-01-20T05:47:05.303Z,19.75
2019-01-20T05:49:35.553Z,16.57
2019-01-20T05:52:05.151Z,16.32
2019-01-20T05:54:35.118Z,19.95
2019-01-20T05:57:04.603Z,18.98
2019-01-20T05:59:33.951Z,15.90
2019-01-20T06:02:03.202Z,22.17
2019-01-20T06:04:34.248Z,19.37
2019-01-20T06:07:04.024Z,16.73
2019-01-20T06:09:33.469Z,15.03
2019-01-20T06:12:02.882Z,16.95
2019-01-20T06:14:33.873Z,15.05
2019-01-20T06:17:03.170Z,15.35
2019-01-20T06:19:33.362Z,16.55
2019-01-20T06:22:03.002Z,17.77
2019-01-20T06:24:33.367Z,21.35
2019-01-20T06:27:02.944Z,21.97
2019-01-20T06:29:33.614Z,22.90
2019-01-20T06:32:03.613Z,21.30
2019-01-20T06:34:33.069Z,20.82
2019-01-20T06:37:02.348Z,17.17
2019-01-20T06:39:32.273Z,18.15
2019-01-20T06:42:02.503Z,17.87
2019-01-20T06:44:31.787Z,18.75
2019-01-20T06:47:01.257Z,15.78
2019-01-20T06:49:32.206Z,15.35
2019-01-20T06:52:01.619Z,19.15
2019-01-20T06:54:31.509Z,18.07
2019-01-20T06:57:00.879Z,16.70
2019-01-20T06:59:30.211Z,19.55
2019-01-20T07:02:00.281Z,16.17
2019-01-20T07:04:29.567Z,15.50
2019-01-20T07:06:59.103Z,18.50
2019-01-20T07:09:28.829Z,16.25
2019-01-20T07:11:58.448Z,17.80
2019-01-20T07:14:27.763Z,16.50
2019-01-20T07:16:58.924Z,18.25
2019-01-20T07:19:30.021Z,17.07
2019-01-20T07:22:00.658Z,16.42
2019-01-20T07:24:30.286Z,15.43
2019-01-20T07:27:00.174Z,16.67
2019-01-20T07:29:30.146Z,14.78
2019-01-20T07:31:59.466Z,16.20
2019-01-20T07:34:28.790Z,14.40
2019-01-20T07:36:58.669Z,18.32
2019-01-20T07:39:28.024Z,14.15
2019-01-20T07:41:57.809Z,15.95
2019-01-20T07:44:27.042Z,15.75
2019-01-20T07:46:56.831Z,15.00
2019-01-20T07:49:28.006Z,19.05
2019-01-20T07:51:57.568Z,17.27
2019-01-20T07:54:28.947Z,15.65
2019-01-20T07:56:59.589Z,18.52
2019-01-20T07:59:29.160Z,15.15
2019-01-20T08:01:59.585Z,17.05
2019-01-20T08:04:28.879Z,14.70
2019-01-20T08:06:58.186Z,23.18
2019-01-20T08:09:28.187Z,15.30
2019-01-20T08:11:57.834Z,14.15
2019-01-20T08:14:27.897Z,19.00
2019-01-20T08:16:57.233Z,13.88
2019-01-20T08:19:31.240Z,14.93
2019-01-20T08:22:02.420Z,18.35
2019-01-20T08:24:32.046Z,16.07
2019-01-20T08:27:01.532Z,13.48
2019-01-20T08:29:31.319Z,12.50
2019-01-20T08:32:01.701Z,17.70
2019-01-20T08:34:34.205Z,13.93
2019-01-20T08:37:05.521Z,13.57
2019-01-20T08:39:40.680Z,11.53
2019-01-20T08:42:10.061Z,12.27
2019-01-20T08:44:42.689Z,12.97
2019-01-20T08:47:28.754Z,13.47
2019-01-20T08:49:58.768Z,14.80
2019-01-20T08:52:30.641Z,14.30
2019-01-20T08:55:02.682Z,14.43
2019-01-20T08:57:38.407Z,13.53
2019-01-20T09:00:12.374Z,12.90
2019-01-20T09:02:42.174Z,13.13
2019-01-20T09:05:12.470Z,15.23
2019-01-20T09:07:41.995Z,14.53
2019-01-20T09:10:20.366Z,18.30
2019-01-20T09:12:50.344Z,15.53
2019-01-20T09:15:20.331Z,13.67
2019-01-20T09:17:49.949Z,12.67
2019-01-20T09:20:19.884Z,14.43
2019-01-20T09:22:49.238Z,12.23
2019-01-20T09:25:20.194Z,13.47
2019-01-20T09:27:51.480Z,12.23
2019-01-20T09:30:22.140Z,11.70
2019-01-20T09:32:54.972Z,10.87
2019-01-20T09:35:24.453Z,13.73
2019-01-20T09:37:55.525Z,11.80
2019-01-20T09:40:28.277Z,13.73
2019-01-20T09:42:57.863Z,12.80
2019-01-20T09:45:31.253Z,12.40
2019-01-20T09:48:01.182Z,12.03
2019-01-20T09:50:30.779Z,15.07
2019-01-20T09:53:02.495Z,12.27
2019-01-20T09:55:33.278Z,14.13
2019-01-20T09:58:06.344Z,13.13
2019-01-20T10:00:35.634Z,14.60
2019-01-20T10:03:16.352Z,13.87
2019-01-20T10:05:49.489Z,14.60
2019-01-20T10:08:18.960Z,12.80
2019-01-20T10:10:49.611Z,12.23
2019-01-20T10:13:19.772Z,10.17
2019-01-20T10:15:52.167Z,13.33
2019-01-20T10:18:23.615Z,14.13
2019-01-20T10:20:53.307Z,14.00
2019-01-20T10:23:22.821Z,14.13
2019-01-20T10:25:55.412Z,13.27
2019-01-20T10:28:26.733Z,17.20
2019-01-20T10:30:56.687Z,11.07
2019-01-20T10:33:26.010Z,12.73
2019-01-20T10:36:03.664Z,14.37
2019-01-20T10:38:37.459Z,11.27
2019-01-20T10:41:08.963Z,12.00
2019-01-20T10:43:41.152Z,14.33
2019-01-20T10:46:10.925Z,12.60
2019-01-20T10:48:41.175Z,11.10
2019-01-20T10:51:14.924Z,11.53
2019-01-20T10:53:45.069Z,11.83
2019-01-20T10:56:15.386Z,11.37
2019-01-20T10:58:49.926Z,11.17
2019-01-20T11:01:22.515Z,14.53
2019-01-20T11:03:52.984Z,11.07
2019-01-20T11:06:24.254Z,10.83
2019-01-20T11:08:54.206Z,12.33
2019-01-20T11:11:25.123Z,12.10
2019-01-20T11:13:54.470Z,12.40
2019-01-20T11:16:24.066Z,12.70
2019-01-20T11:18:57.969Z,12.57
2019-01-20T11:21:32.027Z,14.23
2019-01-20T11:24:03.613Z,11.23
2019-01-20T11:26:33.054Z,10.27
2019-01-20T11:29:04.385Z,12.60
2019-01-20T11:31:42.420Z,10.57
2019-01-20T11:34:12.623Z,14.40
2019-01-20T11:36:42.261Z,16.07
2019-01-20T11:39:22.735Z,17.13
2019-01-20T11:41:53.241Z,12.50
2019-01-20T11:44:22.636Z,11.13
2019-01-20T11:46:53.059Z,12.50
2019-01-20T11:49:23.495Z,12.10
2019-01-20T11:51:54.315Z,16.47
2019-01-20T11:54:23.806Z,15.27
2019-01-20T11:56:54.734Z,15.17
2019-01-20T11:59:23.983Z,13.80
2019-01-20T12:01:55.683Z,15.77
2019-01-20T12:04:30.831Z,12.70
2019-01-20T12:07:22.716Z,14.37
2019-01-20T12:09:55.588Z,15.40
2019-01-20T12:12:27.027Z,12.40
2019-01-20T12:14:56.931Z,13.77
2019-01-20T12:17:30.486Z,13.47
2019-01-20T12:20:00.415Z,12.50
2019-01-20T12:22:37.727Z,14.80
2019-01-20T12:25:13.031Z,11.23
2019-01-20T12:27:57.025Z,14.63
2019-01-20T12:30:31.961Z,11.63
2019-01-20T12:33:02.361Z,16.03
2019-01-20T12:35:33.009Z,15.23
2019-01-20T12:38:04.371Z,13.00
2019-01-20T12:40:44.885Z,17.00
2019-01-20T12:43:16.265Z,17.53
2019-01-20T12:45:46.530Z,15.57
2019-01-20T12:48:17.658Z,11.73
2019-01-20T12:50:50.904Z,14.13
2019-01-20T12:53:24.234Z,11.13
2019-01-20T12:55:54.996Z,13.87
2019-01-20T12:58:26.415Z,11.97
2019-01-20T13:00:57.370Z,12.10
2019-01-20T13:03:29.474Z,11.27
2019-01-20T13:05:59.727Z,10.63
2019-01-20T13:08:29.284Z,13.33
2019-01-20T13:10:59.038Z,11.93
2019-01-20T13:13:28.611Z,10.40
2019-01-20T13:15:58.591Z,11.70
2019-01-20T13:18:31.730Z,12.07
2019-01-20T13:21:01.507Z,11.73
2019-01-20T13:23:32.320Z,16.50
2019-01-20T13:26:01.745Z,10.33
2019-01-20T13:28:31.869Z,11.60
2019-01-20T13:31:01.808Z,10.67
2019-01-20T13:33:31.234Z,11.73
2019-01-20T13:36:07.154Z,10.67
2019-01-20T13:38:34.674Z,12.77
2019-01-20T13:41:27.265Z,10.40
2019-01-20T13:43:57.812Z,10.77
2019-01-20T13:46:27.671Z,10.47
2019-01-20T13:48:56.951Z,10.13
2019-01-20T13:51:28.234Z,10.83
2019-01-20T13:54:01.874Z,14.23
2019-01-20T13:56:32.331Z,10.13
2019-01-20T13:59:04.504Z,14.83
2019-01-20T14:01:36.647Z,11.30
2019-01-20T14:04:07.766Z,10.83
2019-01-20T14:06:39.888Z,15.63
2019-01-20T14:09:10.999Z,11.37
2019-01-20T14:11:45.457Z,13.07
2019-01-20T14:14:17.628Z,12.67
2019-01-20T14:16:46.886Z,10.70
2019-01-20T14:19:21.688Z,10.50
2019-01-20T14:21:51.307Z,11.67
2019-01-20T14:24:21.005Z,11.53
2019-01-20T14:26:52.900Z,11.00
2019-01-20T14:29:23.160Z,11.40
2019-01-20T14:31:54.063Z,12.23
2019-01-20T14:34:23.919Z,17.23
2019-01-20T14:36:56.128Z,12.67
2019-01-20T14:39:28.142Z,12.33
2019-01-20T14:41:57.610Z,12.93
2019-01-20T14:44:27.593Z,14.03
2019-01-20T14:46:56.869Z,12.97
2019-01-20T14:49:27.484Z,12.73
2019-01-20T14:51:57.305Z,13.83
2019-01-20T14:54:30.652Z,13.13
2019-01-20T14:57:01.786Z,12.13
2019-01-20T14:59:31.843Z,14.17
2019-01-20T15:02:01.709Z,14.23
2019-01-20T15:04:36.603Z,11.87
2019-01-20T15:07:07.021Z,12.33
2019-01-20T15:09:37.008Z,14.10
2019-01-20T15:12:13.410Z,15.00
2019-01-20T15:14:46.241Z,14.87
2019-01-20T15:17:17.347Z,13.80
2019-01-20T15:19:46.627Z,15.67
2019-01-20T15:22:22.043Z,13.00
2019-01-20T15:24:52.668Z,16.37
2019-01-20T15:27:22.320Z,14.60
2019-01-20T15:29:52.559Z,11.70
2019-01-20T15:34:58.201Z,13.40
2019-01-20T15:37:35.229Z,14.27
2019-01-20T15:40:15.033Z,14.07
2019-01-20T15:42:46.022Z,16.50
2019-01-20T15:45:17.089Z,16.33
2019-01-20T15:47:46.643Z,19.20
2019-01-20T15:50:20.309Z,16.00
2019-01-20T15:52:49.682Z,17.27
2019-01-20T15:55:26.478Z,15.53
2019-01-20T15:57:57.318Z,18.33
2019-01-20T16:00:33.638Z,18.57
2019-01-20T16:03:05.904Z,14.23
2019-01-20T16:05:35.383Z,13.17
2019-01-20T16:08:18.630Z,13.90
2019-01-20T16:10:56.098Z,13.50
2019-01-20T16:13:43.625Z,14.53
2019-01-20T16:16:17.220Z,15.33
2019-01-20T16:18:46.934Z,16.40
2019-01-20T16:21:20.063Z,13.10
2019-01-20T16:23:51.217Z,14.67
2019-01-20T16:26:20.685Z,16.93
2019-01-20T16:28:53.589Z,15.13
2019-01-20T16:31:28.387Z,17.57
2019-01-20T16:34:00.627Z,15.07
2019-01-20T16:36:33.527Z,15.07
2019-01-20T16:39:07.905Z,17.77
2019-01-20T16:41:38.578Z,16.47
2019-01-20T16:44:08.596Z,16.83
2019-01-20T16:46:52.371Z,14.27
2019-01-20T16:49:22.842Z,16.37
2019-01-20T16:51:54.515Z,15.50
2019-01-20T16:54:26.941Z,16.73
2019-01-20T16:57:05.848Z,18.33
2019-01-20T16:59:35.780Z,19.73
2019-01-20T17:02:05.576Z,18.20
2019-01-20T17:04:36.264Z,21.53
2019-01-20T17:07:13.260Z,24.73
2019-01-20T17:09:46.340Z,24.53
2019-01-20T17:12:16.495Z,18.23
2019-01-20T17:14:45.728Z,17.60
2019-01-20T17:17:17.755Z,22.30
2019-01-20T17:19:50.318Z,18.40
2019-01-20T17:22:21.110Z,17.30
2019-01-20T17:24:51.403Z,25.87
2019-01-20T17:27:22.864Z,25.73
2019-01-20T17:29:52.160Z,20.43
2019-01-20T17:32:21.555Z,26.17
2019-01-20T17:34:53.816Z,25.70
2019-01-20T17:37:23.063Z,24.57
2019-01-20T17:39:52.687Z,22.27
2019-01-20T17:42:27.765Z,24.00
2019-01-20T17:45:00.427Z,26.43
2019-01-20T17:47:30.090Z,23.17
2019-01-20T17:50:02.600Z,25.63
2019-01-20T17:52:32.312Z,20.87
2019-01-20T17:55:02.823Z,25.53
2019-01-20T17:57:34.394Z,25.93
2019-01-20T18:00:08.853Z,30.87
2019-01-20T18:02:39.171Z,22.73
2019-01-20T18:05:09.495Z,30.63
2019-01-20T18:07:38.802Z,33.67
2019-01-20T18:10:10.192Z,27.57
2019-01-20T18:12:45.365Z,26.03
2019-01-20T18:15:16.516Z,25.83
2019-01-20T18:17:46.749Z,28.13
2019-01-20T18:20:23.177Z,24.50
2019-01-20T18:22:55.555Z,23.50
2019-01-20T18:25:25.548Z,22.53
2019-01-20T18:27:56.026Z,27.07
2019-01-20T18:30:33.913Z,27.33
2019-01-20T18:33:03.908Z,26.60
2019-01-20T18:35:34.374Z,23.10
2019-01-20T18:38:04.353Z,23.90
2019-01-20T18:40:34.085Z,25.27
2019-01-20T18:43:04.644Z,21.93
2019-01-20T18:45:35.619Z,30.47
2019-01-20T18:48:07.900Z,23.63
2019-01-20T18:50:40.164Z,25.03
2019-01-20T18:53:10.664Z,22.40
2019-01-20T18:55:44.476Z,27.60
2019-01-20T18:58:18.244Z,27.93
2019-01-20T19:00:54.584Z,26.20
2019-01-20T19:03:28.557Z,28.30
2019-01-20T19:05:58.577Z,28.60
2019-01-20T19:08:28.761Z,32.33
2019-01-20T19:10:59.085Z,27.13
2019-01-20T19:13:33.191Z,31.63
2019-01-20T19:16:08.871Z,28.87
2019-01-20T19:18:37.205Z,28.40
2019-01-20T19:21:07.033Z,32.47
2019-01-20T19:23:40.718Z,31.27
2019-01-20T19:26:11.158Z,30.07
2019-01-20T19:29:02.949Z,26.77
2019-01-20T19:31:31.141Z,26.53
2019-01-20T19:34:04.515Z,29.27
2019-01-20T19:36:34.249Z,30.57
2019-01-20T19:39:07.783Z,27.93
2019-01-20T19:41:41.270Z,26.50
2019-01-20T19:44:12.733Z,30.77
2019-01-20T19:46:42.028Z,29.47
2019-01-20T19:49:11.846Z,35.23
2019-01-20T19:51:44.643Z,28.53
2019-01-20T19:54:15.791Z,29.10
2019-01-20T19:56:46.161Z,35.70
2019-01-20T19:59:19.009Z,32.00
2019-01-20T20:01:52.084Z,33.90
2019-01-20T20:04:24.765Z,30.37
2019-01-20T20:06:55.866Z,29.50
2019-01-20T20:09:26.466Z,28.87
2019-01-20T20:11:58.555Z,31.50
2019-01-20T20:14:28.334Z,27.93
2019-01-20T20:16:59.494Z,25.00
2019-01-20T20:19:30.681Z,30.77
2019-01-20T20:22:00.604Z,26.90
2019-01-20T20:24:32.115Z,24.17
2019-01-20T20:27:02.525Z,25.13
2019-01-20T20:29:42.596Z,28.07
2019-01-20T20:32:18.789Z,31.23
2019-01-20T20:34:48.808Z,25.20
2019-01-20T20:37:18.585Z,25.23
2019-01-20T20:39:49.662Z,25.73
2019-01-20T20:42:19.243Z,28.03
2019-01-20T20:44:56.778Z,30.87
2019-01-20T20:47:26.328Z,27.40
2019-01-20T20:50:01.480Z,31.37
2019-01-20T20:52:46.042Z,28.17
2019-01-20T20:55:20.636Z,30.53
2019-01-20T20:57:59.603Z,27.77
2019-01-20T21:00:32.135Z,26.13
2019-01-20T21:03:03.433Z,27.63
2019-01-20T21:05:32.573Z,23.10
2019-01-20T21:08:02.139Z,26.93
2019-01-20T21:10:38.056Z,28.55
2019-01-20T21:13:07.891Z,27.50
2019-01-20T21:15:37.506Z,30.85
2019-01-20T21:18:06.719Z,30.17
2019-01-20T21:20:43.785Z,33.13
2019-01-20T21:23:13.550Z,32.30
2019-01-20T21:25:47.331Z,28.80
2019-01-20T21:28:17.207Z,26.33
2019-01-20T21:30:54.036Z,31.05
2019-01-20T21:33:27.307Z,27.00
2019-01-20T21:36:01.581Z,29.07
2019-01-20T21:38:34.843Z,29.60
2019-01-20T21:41:04.581Z,26.23
2019-01-20T21:43:35.668Z,27.25
2019-01-20T21:46:05.900Z,29.30
2019-01-20T21:48:39.634Z,26.02
2019-01-20T21:51:11.746Z,31.52
2019-01-20T21:53:42.579Z,27.37
2019-01-20T21:56:13.644Z,28.60
2019-01-20T21:58:48.342Z,26.82
2019-01-20T22:01:19.558Z,28.27
2019-01-20T22:03:57.797Z,27.17
2019-01-20T22:06:27.808Z,23.77
2019-01-20T22:08:57.772Z,26.65
2019-01-20T22:11:28.572Z,28.05
2019-01-20T22:14:01.383Z,27.65
2019-01-20T22:16:34.971Z,25.95
2019-01-20T22:19:06.097Z,27.48
2019-01-20T22:21:37.602Z,30.52
2019-01-20T22:24:15.354Z,25.82
2019-01-20T22:26:44.620Z,29.80
2019-01-20T22:29:16.869Z,32.15
2019-01-20T22:31:46.519Z,30.48
2019-01-20T22:34:16.243Z,34.48
2019-01-20T22:36:50.452Z,32.33
2019-01-20T22:39:20.166Z,31.93
2019-01-20T22:41:50.052Z,35.25
2019-01-20T22:44:20.786Z,32.33
2019-01-20T22:46:50.332Z,28.50
2019-01-20T22:49:20.094Z,28.23
2019-01-20T22:51:53.926Z,29.90
2019-01-20T22:54:27.941Z,34.27
2019-01-20T22:57:02.725Z,28.23
2019-01-20T22:59:33.385Z,29.18
2019-01-20T23:02:06.883Z,29.67
2019-01-20T23:04:37.986Z,29.82
2019-01-20T23:07:08.031Z,31.37
2019-01-20T23:09:43.288Z,34.13
2019-01-20T23:12:12.652Z,28.05
2019-01-20T23:14:42.429Z,27.62
2019-01-20T23:17:12.711Z,27.42
2019-01-20T23:19:42.438Z,26.60
2019-01-20T23:22:11.690Z,27.82
2019-01-20T23:24:41.661Z,26.90
2019-01-20T23:27:11.245Z,27.73
2019-01-20T23:29:41.318Z,28.90
2019-01-20T23:32:11.710Z,26.52
2019-01-20T23:34:44.717Z,31.10
2019-01-20T23:37:16.907Z,26.55
2019-01-20T23:39:46.659Z,25.45
2019-01-20T23:42:15.978Z,28.55
2019-01-20T23:44:46.367Z,25.75
2019-01-20T23:47:16.547Z,25.02
2019-01-20T23:49:45.912Z,26.42
2019-01-20T23:52:15.159Z,25.85
2019-01-20T23:54:44.975Z,25.45
2019-01-20T23:57:18.596Z,26.37
2019-01-20T23:59:47.888Z,26.05
